Time;durP1;ratioP1;P1;durP2;ratioP2;P2;SDS_P1;SDS_P2;PMS_P1;PMS_P2;Temp;Humidity;BMP_temperature;BMP_pressure;BME280_temperature;BME280_humidity;BME280_pressure;Samples;Min_cycle;Max_cycle;Signal;HPM_P1;HPM_P2
2021/12/17 00:01:50;;;;;;;2.30;2.13;;;;;;;;;;7363718;19;161995;-15
2021/12/17 00:04:30;;;;;;;1.88;1.77;;;;;;;;;;7363269;19;162503;-14
2021/12/17 00:07:01;;;;;;;2.08;1.88;;;;;;;;;;7363941;19;155324;-14
2021/12/17 00:09:33;;;;;;;1.83;1.73;;;;;;;;;;7367947;19;153705;-13
2021/12/17 00:12:09;;;;;;;1.98;1.88;;;;;;;;;;7363380;19;161828;-14
2021/12/17 00:14:42;;;;;;;1.90;1.80;;;;;;;;;;7360130;19;162522;-14
2021/12/17 00:17:24;;;;;;;1.63;1.52;;;;;;;;;;7363531;19;154684;-15
2021/12/17 07:42:54;;;;;;;0.80;0.80;;;;;;;;;;7370983;19;132556;-16
2021/12/17 07:45:43;;;;;;;0.70;0.70;;;;;;;;;;7364026;19;153650;-15
2021/12/17 07:48:25;;;;;;;0.70;0.70;;;;;;;;;;7363710;19;161891;-15
2021/12/17 07:51:17;;;;;;;0.68;0.68;;;;;;;;;;7362474;19;162425;-15
2021/12/17 07:53:57;;;;;;;0.55;0.55;;;;;;;;;;7363896;19;153678;-14
2021/12/17 07:56:37;;;;;;;0.65;0.65;;;;;;;;;;7363880;19;153667;-15
2021/12/17 07:59:19;;;;;;;0.70;0.70;;;;;;;;;;7363562;19;162101;-16
2021/12/17 08:01:51;;;;;;;0.63;0.63;;;;;;;;;;7363363;19;162427;-17
2021/12/17 08:04:25;;;;;;;0.68;0.68;;;;;;;;;;7363519;19;154138;-15
2021/12/17 08:07:03;;;;;;;0.60;0.60;;;;;;;;;;7363624;19;153503;-15
2021/12/17 08:09:39;;;;;;;0.60;0.60;;;;;;;;;;7362843;19;161893;-15
2021/12/17 08:12:11;;;;;;;0.80;0.80;;;;;;;;;;7361041;19;162506;-14
2021/12/17 08:14:54;;;;;;;0.50;0.50;;;;;;;;;;7363233;19;154049;-15
2021/12/17 08:17:43;;;;;;;0.60;0.60;;;;;;;;;;7363371;19;153756;-15
2021/12/17 08:26:07;;;;;;;0.60;0.60;;;;;;;;;;7364348;19;153934;-15
2021/12/17 08:28:56;;;;;;;0.60;0.60;;;;;;;;;;7362935;19;153536;-15
2021/12/17 08:31:33;;;;;;;0.60;0.60;;;;;;;;;;7361188;19;162096;-14
2021/12/17 08:34:05;;;;;;;0.50;0.50;;;;;;;;;;7362396;19;162568;-15
2021/12/17 08:36:38;;;;;;;0.60;0.60;;;;;;;;;;7362798;19;154303;-14
2021/12/17 08:39:10;;;;;;;0.50;0.50;;;;;;;;;;7362498;19;153693;-15
2021/12/17 08:41:51;;;;;;;0.57;0.57;;;;;;;;;;7355988;19;162023;-15
2021/12/17 08:44:24;;;;;;;0.60;0.60;;;;;;;;;;7333152;19;163124;-15
2021/12/17 08:47:18;;;;;;;0.60;0.60;;;;;;;;;;7334759;19;154028;-15
2021/12/17 08:49:50;;;;;;;0.43;0.43;;;;;;;;;;7333507;19;153783;-16
2021/12/17 08:52:25;;;;;;;0.70;0.70;;;;;;;;;;7331268;19;161872;-16
2021/12/17 08:54:57;;;;;;;0.65;0.65;;;;;;;;;;7333067;19;162503;-15
2021/12/17 08:57:28;;;;;;;0.50;0.50;;;;;;;;;;7333253;19;153983;-15
2021/12/17 09:00:04;;;;;;;0.60;0.60;;;;;;;;;;7333601;19;153537;-16
2021/12/17 09:03:06;;;;;;;0.60;0.60;;;;;;;;;;7333388;19;162035;-15
2021/12/17 09:05:56;;;;;;;0.57;0.57;;;;;;;;;;7333866;19;162363;-16
2021/12/17 09:08:38;;;;;;;0.55;0.55;;;;;;;;;;7333053;19;153980;-14
2021/12/17 09:11:12;;;;;;;0.57;0.57;;;;;;;;;;7332978;19;153658;-15
2021/12/17 09:14:07;;;;;;;0.60;0.60;;;;;;;;;;7332411;19;161747;-15
2021/12/17 09:16:52;;;;;;;0.60;0.60;;;;;;;;;;7332296;19;162589;-15
2021/12/17 09:19:29;;;;;;;0.50;0.50;;;;;;;;;;7332769;19;153941;-14
2021/12/17 09:22:10;;;;;;;0.60;0.60;;;;;;;;;;7332683;19;153552;-16
2021/12/17 09:24:46;;;;;;;0.60;0.60;;;;;;;;;;7332185;19;162050;-15
2021/12/17 09:27:20;;;;;;;0.60;0.60;;;;;;;;;;7333362;19;162442;-14
2021/12/17 09:30:13;;;;;;;0.50;0.50;;;;;;;;;;7333695;19;154015;-15
2021/12/17 09:32:46;;;;;;;0.60;0.60;;;;;;;;;;7331753;19;153655;-15
2021/12/17 09:35:21;;;;;;;0.60;0.60;;;;;;;;;;7332905;19;162131;-16
2021/12/17 09:37:52;;;;;;;0.55;0.55;;;;;;;;;;7333012;19;162521;-15
2021/12/17 09:40:23;;;;;;;0.60;0.60;;;;;;;;;;7332831;19;153909;-14
2021/12/17 09:42:55;;;;;;;0.50;0.50;;;;;;;;;;7330598;19;153500;-15
2021/12/17 09:45:26;;;;;;;0.50;0.50;;;;;;;;;;7332930;19;161898;-16
2021/12/17 09:47:58;;;;;;;0.70;0.70;;;;;;;;;;7331507;19;162420;-16
2021/12/17 09:50:33;;;;;;;0.50;0.50;;;;;;;;;;7332958;19;154059;-16
2021/12/17 09:53:04;;;;;;;0.60;0.60;;;;;;;;;;7330071;19;153503;-15
2021/12/17 09:55:36;;;;;;;0.60;0.60;;;;;;;;;;7330180;19;161812;-15
2021/12/17 09:58:07;;;;;;;0.50;0.50;;;;;;;;;;7331369;19;162681;-15
2021/12/17 10:00:38;;;;;;;0.50;0.50;;;;;;;;;;7332845;19;154378;-14
2021/12/17 10:03:11;;;;;;;0.50;0.50;;;;;;;;;;7332715;19;153545;-15
2021/12/17 10:05:45;;;;;;;0.70;0.70;;;;;;;;;;7332187;19;161851;-15
2021/12/17 10:08:19;;;;;;;0.50;0.50;;;;;;;;;;7332235;19;163009;-15
2021/12/17 10:10:52;;;;;;;0.50;0.50;;;;;;;;;;7332730;19;153850;-15
2021/12/17 10:13:24;;;;;;;;;;;;;;;;;;7330846;19;153856;-15
2021/12/17 10:15:57;;;;;;;0.70;0.70;;;;;;;;;;7331924;19;161956;-14
2021/12/17 10:18:34;;;;;;;0.60;0.60;;;;;;;;;;7331858;19;162489;-15
2021/12/17 10:21:10;;;;;;;0.40;0.40;;;;;;;;;;7332058;19;153917;-14
2021/12/17 10:23:44;;;;;;;0.60;0.60;;;;;;;;;;7332019;19;153664;-16
2021/12/17 10:26:16;;;;;;;0.50;0.50;;;;;;;;;;7331581;19;161846;-15
2021/12/17 10:28:55;;;;;;;0.60;0.60;;;;;;;;;;7331612;19;162540;-15
2021/12/17 10:31:28;;;;;;;0.60;0.60;;;;;;;;;;7331951;19;153952;-16
2021/12/17 10:34:01;;;;;;;0.50;0.50;;;;;;;;;;7329292;19;153331;-15
2021/12/17 10:36:36;;;;;;;;;;;;;;;;;;7332028;19;161813;-15
2021/12/17 10:39:24;;;;;;;0.52;0.52;;;;;;;;;;7331567;19;162686;-15
2021/12/17 10:41:55;;;;;;;0.60;0.60;;;;;;;;;;7329933;19;153880;-16
2021/12/17 10:44:27;;;;;;;0.63;0.63;;;;;;;;;;7331515;19;153545;-16
2021/12/17 10:47:14;;;;;;;0.80;0.80;;;;;;;;;;7331253;19;162039;-16
2021/12/17 10:49:54;;;;;;;0.63;0.63;;;;;;;;;;7330928;19;162602;-15
2021/12/17 10:52:35;;;;;;;0.60;0.60;;;;;;;;;;7330772;19;154230;-14
2021/12/17 10:55:11;;;;;;;0.50;0.50;;;;;;;;;;7331071;19;153549;-15
2021/12/17 10:57:42;;;;;;;0.52;0.52;;;;;;;;;;7330677;19;161886;-15
2021/12/17 11:00:20;;;;;;;0.63;0.63;;;;;;;;;;7330782;19;162405;-14
2021/12/17 11:02:52;;;;;;;0.73;0.73;;;;;;;;;;7330811;19;153997;-15
2021/12/17 11:05:24;;;;;;;0.70;0.70;;;;;;;;;;7330093;19;153528;-16
2021/12/17 11:07:58;;;;;;;0.75;0.75;;;;;;;;;;7330335;19;162041;-16
2021/12/17 11:10:35;;;;;;;0.50;0.50;;;;;;;;;;7330416;19;162321;-15
2021/12/17 11:13:06;;;;;;;0.70;0.70;;;;;;;;;;7329680;19;154306;-18
2021/12/17 11:15:37;;;;;;;0.60;0.60;;;;;;;;;;7330604;19;153667;-17
2021/12/17 11:18:09;;;;;;;0.70;0.70;;;;;;;;;;7330119;19;161827;-15
2021/12/17 11:20:42;;;;;;;0.70;0.70;;;;;;;;;;7330054;19;162498;-15
2021/12/17 11:23:16;;;;;;;0.70;0.70;;;;;;;;;;7330494;19;154113;-16
2021/12/17 11:25:50;;;;;;;0.55;0.55;;;;;;;;;;7330235;19;153504;-15
2021/12/17 11:28:21;;;;;;;0.70;0.70;;;;;;;;;;7329687;19;162107;-15
2021/12/17 11:30:54;;;;;;;0.70;0.70;;;;;;;;;;7329671;19;162657;-15
2021/12/17 11:33:25;;;;;;;0.60;0.60;;;;;;;;;;7328782;19;154138;-16
2021/12/17 11:35:57;;;;;;;0.70;0.70;;;;;;;;;;7329704;19;153510;-14
2021/12/17 11:38:44;;;;;;;0.57;0.57;;;;;;;;;;7329426;19;161943;-16
2021/12/17 11:41:33;;;;;;;0.60;0.60;;;;;;;;;;7328160;19;162586;-15
2021/12/17 11:44:08;;;;;;;0.60;0.60;;;;;;;;;;7329464;19;154201;-14
2021/12/17 11:46:39;;;;;;;0.60;0.60;;;;;;;;;;7329632;19;153496;-16
2021/12/17 11:49:17;;;;;;;0.80;0.80;;;;;;;;;;7328582;19;162575;-15
2021/12/17 11:51:56;;;;;;;0.73;0.73;;;;;;;;;;7327694;19;162595;-15
2021/12/17 11:54:35;;;;;;;0.80;0.80;;;;;;;;;;7329823;19;153909;-15
2021/12/17 11:57:10;;;;;;;0.95;0.95;;;;;;;;;;7328957;19;153659;-15
2021/12/17 11:59:43;;;;;;;1.63;0.93;;;;;;;;;;7328543;19;161891;-14
2021/12/17 12:02:22;;;;;;;0.90;0.90;;;;;;;;;;7328483;19;162673;-15
2021/12/17 12:05:00;;;;;;;0.90;0.90;;;;;;;;;;7328949;19;154136;-14
2021/12/17 12:07:37;;;;;;;1.52;1.20;;;;;;;;;;7328778;19;153639;-15
2021/12/17 12:10:23;;;;;;;1.30;1.00;;;;;;;;;;7328123;19;161725;-15
2021/12/17 12:13:04;;;;;;;0.95;0.88;;;;;;;;;;7328034;19;162440;-14
2021/12/17 12:15:40;;;;;;;0.98;0.98;;;;;;;;;;7328111;19;154007;-16
2021/12/17 12:18:49;;;;;;;0.88;0.88;;;;;;;;;;7331849;19;153724;-16
2021/12/17 12:21:21;;;;;;;0.90;0.90;;;;;;;;;;7334875;19;161861;-15
2021/12/17 12:24:12;;;;;;;0.90;0.90;;;;;;;;;;7333625;19;162449;-15
2021/12/17 12:26:48;;;;;;;1.65;1.33;;;;;;;;;;7334938;19;154126;-14
2021/12/17 12:29:27;;;;;;;0.90;0.90;;;;;;;;;;7334890;19;153972;-14
2021/12/17 12:32:04;;;;;;;0.80;0.80;;;;;;;;;;7334750;19;162036;-14
2021/12/17 12:34:42;;;;;;;1.20;1.20;;;;;;;;;;7333284;19;162527;-14
2021/12/17 12:37:28;;;;;;;1.13;1.08;;;;;;;;;;7334762;19;153959;-15
2021/12/17 12:40:16;;;;;;;1.23;1.10;;;;;;;;;;7334846;19;153670;-15
2021/12/17 12:42:57;;;;;;;1.00;1.00;;;;;;;;;;7331944;19;161815;-14
2021/12/17 12:45:33;;;;;;;1.00;1.00;;;;;;;;;;7334158;19;162615;-14
2021/12/17 12:48:05;;;;;;;1.40;0.90;;;;;;;;;;7334421;19;154328;-13
2021/12/17 12:50:37;;;;;;;0.98;0.98;;;;;;;;;;7334247;19;153476;-13
2021/12/17 12:53:29;;;;;;;;;;;;;;;;;;7334557;19;161818;-13
2021/12/17 12:56:01;;;;;;;1.00;1.00;;;;;;;;;;7333294;19;162585;-15
2021/12/17 12:58:40;;;;;;;0.98;0.98;;;;;;;;;;7333083;19;154009;-13
2021/12/17 13:01:15;;;;;;;1.02;1.00;;;;;;;;;;7333915;19;153711;-15
2021/12/17 13:03:46;;;;;;;1.00;1.00;;;;;;;;;;7333806;19;161983;-14
2021/12/17 13:06:19;;;;;;;1.27;1.17;;;;;;;;;;7333608;19;162659;-14
2021/12/17 13:08:56;;;;;;;0.90;0.90;;;;;;;;;;7334176;19;153930;-13
2021/12/17 13:11:28;;;;;;;1.17;0.98;;;;;;;;;;7334663;19;153516;-14
2021/12/17 13:14:17;;;;;;;0.88;0.80;;;;;;;;;;7335960;19;162013;-14
2021/12/17 13:17:05;;;;;;;1.10;1.00;;;;;;;;;;7333213;19;162393;-14
2021/12/17 13:22:42;;;;;;;1.08;0.93;;;;;;;;;;7333565;19;153605;-13
2021/12/17 13:25:25;;;;;;;1.20;1.10;;;;;;;;;;7333189;19;162177;-14
2021/12/17 13:27:57;;;;;;;1.02;0.80;;;;;;;;;;7331761;19;162628;-13
2021/12/17 13:30:31;;;;;;;0.85;0.85;;;;;;;;;;7333301;19;153966;-14
2021/12/17 13:33:02;;;;;;;1.10;1.00;;;;;;;;;;7333103;19;153501;-13
2021/12/17 13:35:37;;;;;;;;;;;;;;;;;;7331576;19;161856;-14
2021/12/17 13:38:08;;;;;;;0.87;0.87;;;;;;;;;;7333109;19;162272;-13
2021/12/17 13:40:39;;;;;;;0.80;0.80;;;;;;;;;;7332528;19;154232;-15
2021/12/17 13:43:11;;;;;;;1.00;1.00;;;;;;;;;;7333180;19;153645;-15
2021/12/17 13:45:49;;;;;;;0.77;0.77;;;;;;;;;;7332855;19;161921;-15
2021/12/17 13:48:20;;;;;;;0.80;0.80;;;;;;;;;;7332359;19;162435;-14
2021/12/17 13:50:52;;;;;;;1.00;1.00;;;;;;;;;;7332960;19;153965;-15
2021/12/17 13:53:23;;;;;;;0.93;0.90;;;;;;;;;;7332896;19;153750;-14
2021/12/17 13:56:17;;;;;;;1.20;0.88;;;;;;;;;;7328882;19;162115;-16
2021/12/17 13:58:48;;;;;;;0.95;0.95;;;;;;;;;;7332247;19;163130;-14
2021/12/17 14:01:25;;;;;;;0.98;0.98;;;;;;;;;;7332764;19;154017;-15
2021/12/17 14:03:57;;;;;;;0.77;0.77;;;;;;;;;;7332366;19;153501;-14
2021/12/17 14:06:35;;;;;;;0.95;0.95;;;;;;;;;;7331881;19;161863;-15
2021/12/17 14:09:07;;;;;;;0.85;0.85;;;;;;;;;;7335247;19;162481;-16
2021/12/17 14:11:38;;;;;;;1.65;1.00;;;;;;;;;;7332480;19;153963;-15
2021/12/17 14:14:33;;;;;;;1.00;1.00;;;;;;;;;;7332107;19;153511;-14
2021/12/17 14:17:10;;;;;;;0.80;0.80;;;;;;;;;;7331717;19;161825;-15
2021/12/17 14:19:43;;;;;;;0.98;0.98;;;;;;;;;;7331764;19;162534;-16
2021/12/17 14:22:29;;;;;;;0.90;0.90;;;;;;;;;;7332283;19;154086;-15
2021/12/17 14:25:01;;;;;;;0.90;0.90;;;;;;;;;;7332149;19;153626;-16
2021/12/17 14:27:45;;;;;;;0.83;0.83;;;;;;;;;;7331511;19;161850;-15
2021/12/17 14:30:17;;;;;;;1.45;1.13;;;;;;;;;;7331648;19;162800;-15
2021/12/17 14:32:52;;;;;;;1.38;0.68;;;;;;;;;;7331919;19;153931;-16
2021/12/17 14:35:51;;;;;;;0.98;0.77;;;;;;;;;;7329772;19;153969;-14
2021/12/17 14:38:25;;;;;;;0.80;0.80;;;;;;;;;;7331289;19;162203;-16
2021/12/17 14:41:01;;;;;;;1.13;1.00;;;;;;;;;;7330990;19;162407;-19
2021/12/17 14:43:40;;;;;;;1.40;1.02;;;;;;;;;;7331894;19;154154;-15
2021/12/17 14:46:21;;;;;;;0.80;0.80;;;;;;;;;;7331509;19;153761;-15
2021/12/17 15:00:51;;;;;;;1.40;1.30;;;;;;;;;;7330637;19;161979;-15
2021/12/17 15:03:29;;;;;;;2.35;1.33;;;;;;;;;;7332947;19;162107;-16
2021/12/17 15:06:05;;;;;;;1.05;1.05;;;;;;;;;;7333879;19;154053;-15
2021/12/17 15:08:37;;;;;;;1.10;1.10;;;;;;;;;;7332450;19;153243;-15
2021/12/17 15:11:24;;;;;;;1.88;0.95;;;;;;;;;;7333310;19;161977;-16
2021/12/17 15:13:55;;;;;;;1.08;1.08;;;;;;;;;;7333569;19;162617;-14
2021/12/17 15:16:27;;;;;;;3.27;1.30;;;;;;;;;;7331314;19;154016;-17
2021/12/17 15:18:59;;;;;;;1.73;1.10;;;;;;;;;;7332979;19;153803;-19
2021/12/17 15:21:33;;;;;;;1.08;1.08;;;;;;;;;;7333679;19;161881;-15
2021/12/17 15:24:04;;;;;;;2.17;1.10;;;;;;;;;;7332498;19;162507;-14
2021/12/17 15:26:35;;;;;;;1.00;1.00;;;;;;;;;;7332779;19;154013;-15
2021/12/17 15:29:06;;;;;;;1.17;0.77;;;;;;;;;;7333550;19;153478;-16
2021/12/17 15:31:38;;;;;;;1.10;1.05;;;;;;;;;;7333280;19;161811;-14
2021/12/17 15:34:09;;;;;;;0.98;0.98;;;;;;;;;;7331498;19;163324;-15
2021/12/17 15:36:43;;;;;;;1.13;1.00;;;;;;;;;;7330864;19;154321;-15
2021/12/17 15:39:15;;;;;;;0.90;0.90;;;;;;;;;;7329970;19;153665;-15
2021/12/17 15:41:46;;;;;;;1.45;1.02;;;;;;;;;;7327852;19;162142;-16
2021/12/17 15:44:17;;;;;;;0.98;0.98;;;;;;;;;;7329240;19;162662;-15
2021/12/17 15:46:50;;;;;;;1.05;1.02;;;;;;;;;;7329535;19;154202;-15
2021/12/17 15:49:21;;;;;;;0.93;0.93;;;;;;;;;;7329566;19;153736;-15
2021/12/17 15:51:55;;;;;;;1.20;0.90;;;;;;;;;;7327952;19;161834;-15
2021/12/17 15:54:28;;;;;;;1.08;0.90;;;;;;;;;;7335824;19;162329;-15
2021/12/17 15:57:00;;;;;;;1.30;0.90;;;;;;;;;;7334705;19;153994;-14
2021/12/17 15:59:31;;;;;;;1.55;0.98;;;;;;;;;;7336164;19;153600;-15
2021/12/17 16:02:03;;;;;;;0.95;0.82;;;;;;;;;;7335395;19;161787;-15
2021/12/17 16:04:39;;;;;;;1.08;0.98;;;;;;;;;;7335175;19;162359;-15
2021/12/17 16:07:14;;;;;;;1.98;1.00;;;;;;;;;;7334850;19;153978;-14
2021/12/17 16:18:17;;;;;;;1.40;1.00;;;;;;;;;;7333132;19;154013;-15
2021/12/17 16:23:47;;;;;;;0.93;0.93;;;;;;;;;;7333359;19;161894;-14
2021/12/17 16:26:22;;;;;;;0.85;0.85;;;;;;;;;;7332999;19;162643;-14
2021/12/17 16:28:54;;;;;;;0.80;0.80;;;;;;;;;;7332753;19;154580;-14
2021/12/17 16:31:28;;;;;;;1.43;1.03;;;;;;;;;;7331013;19;153584;-15
2021/12/17 16:34:02;;;;;;;0.70;0.70;;;;;;;;;;7331094;19;161836;-15
2021/12/17 16:36:35;;;;;;;0.75;0.75;;;;;;;;;;7328057;19;162492;-15
2021/12/17 16:39:12;;;;;;;1.02;1.02;;;;;;;;;;7328514;19;154190;-14
2021/12/17 16:41:43;;;;;;;0.90;0.90;;;;;;;;;;7328750;19;153673;-14
2021/12/17 16:44:19;;;;;;;0.95;0.95;;;;;;;;;;7332490;19;161952;-15
2021/12/17 16:47:06;;;;;;;1.38;0.90;;;;;;;;;;7331870;19;162362;-15
2021/12/17 16:49:37;;;;;;;2.05;0.90;;;;;;;;;;7329219;19;154003;-15
2021/12/17 16:52:09;;;;;;;2.92;1.00;;;;;;;;;;7327588;19;153617;-15
2021/12/17 16:54:43;;;;;;;1.95;0.90;;;;;;;;;;7330225;19;164009;-16
2021/12/17 16:57:14;;;;;;;0.60;0.60;;;;;;;;;;7327716;19;162494;-14
2021/12/17 16:59:45;;;;;;;0.90;0.90;;;;;;;;;;7330738;19;153950;-16
2021/12/17 17:02:17;;;;;;;2.25;1.02;;;;;;;;;;7333668;19;153665;-15
2021/12/17 17:04:48;;;;;;;1.02;1.00;;;;;;;;;;7327942;19;162100;-16
2021/12/17 17:07:20;;;;;;;1.10;1.00;;;;;;;;;;7329091;19;162701;-16
2021/12/17 17:09:54;;;;;;;0.90;0.90;;;;;;;;;;7327616;19;154941;-15
2021/12/17 17:12:28;;;;;;;1.63;1.08;;;;;;;;;;7330550;19;154097;-15
2021/12/17 17:14:59;;;;;;;0.98;0.95;;;;;;;;;;7332245;19;161935;-16
2021/12/17 17:17:31;;;;;;;0.70;0.70;;;;;;;;;;7329317;19;162391;-16
2021/12/17 17:20:02;;;;;;;0.80;0.80;;;;;;;;;;7329681;19;155167;-16
2021/12/17 17:22:33;;;;;;;0.98;0.75;;;;;;;;;;7330445;19;153548;-16
2021/12/17 17:25:08;;;;;;;1.55;0.90;;;;;;;;;;7331172;19;162011;-15
2021/12/17 17:27:40;;;;;;;0.60;0.60;;;;;;;;;;7330069;19;162416;-15
2021/12/17 17:30:12;;;;;;;0.75;0.75;;;;;;;;;;7328257;19;154022;-15
2021/12/17 17:32:43;;;;;;;3.00;0.90;;;;;;;;;;7332565;19;153892;-16
2021/12/17 17:35:15;;;;;;;1.00;1.00;;;;;;;;;;7335100;19;161952;-16
2021/12/17 17:37:46;;;;;;;1.15;1.10;;;;;;;;;;7329115;19;162485;-16
2021/12/17 17:40:20;;;;;;;1.00;1.00;;;;;;;;;;7329573;19;153958;-15
2021/12/17 17:42:52;;;;;;;1.08;1.02;;;;;;;;;;7328181;19;153668;-15
2021/12/17 17:45:24;;;;;;;1.02;1.02;;;;;;;;;;7332166;19;161850;-15
2021/12/17 17:47:55;;;;;;;1.10;1.10;;;;;;;;;;7332708;19;162520;-15
2021/12/17 17:50:26;;;;;;;1.08;1.00;;;;;;;;;;7333278;19;154080;-15
2021/12/17 17:52:57;;;;;;;1.17;0.90;;;;;;;;;;7333101;19;153536;-16
2021/12/17 17:55:31;;;;;;;1.00;1.00;;;;;;;;;;7332571;19;162010;-15
2021/12/17 17:58:03;;;;;;;1.10;1.10;;;;;;;;;;7331098;19;162345;-16
2021/12/17 18:00:34;;;;;;;1.17;1.15;;;;;;;;;;7332858;19;153851;-15
2021/12/17 18:03:05;;;;;;;1.10;1.10;;;;;;;;;;7332629;19;153811;-15
2021/12/17 18:05:41;;;;;;;1.20;1.10;;;;;;;;;;7332180;19;161916;-16
2021/12/17 18:08:14;;;;;;;1.00;1.00;;;;;;;;;;7332017;19;162141;-16
2021/12/17 18:10:48;;;;;;;;;;;;;;;;;;7332879;19;154079;-15
2021/12/17 18:13:21;;;;;;;0.90;0.90;;;;;;;;;;7331361;19;153723;-15
2021/12/17 18:15:53;;;;;;;1.45;1.33;;;;;;;;;;7329717;19;162000;-14
2021/12/17 18:18:25;;;;;;;0.80;0.80;;;;;;;;;;7329048;19;162661;-14
2021/12/17 18:20:57;;;;;;;1.35;1.27;;;;;;;;;;7332275;19;154266;-15
2021/12/17 18:23:29;;;;;;;1.10;1.10;;;;;;;;;;7331886;19;153634;-15
2021/12/17 18:26:03;;;;;;;1.00;1.00;;;;;;;;;;7331791;19;161988;-14
2021/12/17 18:28:34;;;;;;;1.10;1.10;;;;;;;;;;7331665;19;163017;-15
2021/12/17 18:31:06;;;;;;;1.27;1.17;;;;;;;;;;7332045;19;154152;-15
2021/12/17 18:33:37;;;;;;;1.40;1.30;;;;;;;;;;7331979;19;153482;-14
2021/12/17 18:36:11;;;;;;;1.08;1.02;;;;;;;;;;7331526;19;161942;-16
2021/12/17 18:38:43;;;;;;;1.13;1.13;;;;;;;;;;7329886;19;162355;-14
2021/12/17 18:41:23;;;;;;;1.20;1.15;;;;;;;;;;7329756;19;154359;-16
2021/12/17 18:44:08;;;;;;;1.30;1.20;;;;;;;;;;7331441;19;153787;-15
2021/12/17 18:46:43;;;;;;;1.00;1.00;;;;;;;;;;7331214;19;161808;-15
2021/12/17 18:49:15;;;;;;;1.30;1.20;;;;;;;;;;7331169;19;162377;-14
2021/12/17 18:51:46;;;;;;;1.17;1.17;;;;;;;;;;7331486;19;153931;-14
2021/12/17 18:54:17;;;;;;;1.13;1.13;;;;;;;;;;7331171;19;153515;-16
2021/12/17 18:56:51;;;;;;;1.10;1.10;;;;;;;;;;7330946;19;162036;-15
2021/12/17 18:59:23;;;;;;;1.42;1.25;;;;;;;;;;7328629;19;162706;-14
2021/12/17 19:01:54;;;;;;;1.20;1.20;;;;;;;;;;7331161;19;153999;-15
2021/12/17 19:04:25;;;;;;;1.42;1.27;;;;;;;;;;7330819;19;153530;-24
2021/12/17 19:06:58;;;;;;;0.90;0.90;;;;;;;;;;7330528;19;162032;-15
2021/12/17 19:09:30;;;;;;;1.33;1.30;;;;;;;;;;7330409;19;162397;-15
2021/12/17 19:12:04;;;;;;;1.23;1.15;;;;;;;;;;7330570;19;154499;-15
2021/12/17 19:14:37;;;;;;;1.20;1.10;;;;;;;;;;7330700;19;153517;-15
2021/12/17 19:17:09;;;;;;;1.30;1.30;;;;;;;;;;7330009;19;161739;-14
2021/12/17 19:19:48;;;;;;;1.23;1.23;;;;;;;;;;7327960;19;162649;-14
2021/12/17 19:22:31;;;;;;;1.10;1.10;;;;;;;;;;7330510;19;154004;-14
2021/12/17 19:25:02;;;;;;;1.20;1.10;;;;;;;;;;7330605;19;153473;-15
2021/12/17 19:27:36;;;;;;;1.40;1.30;;;;;;;;;;7328250;19;162009;-15
2021/12/17 19:30:11;;;;;;;1.40;1.35;;;;;;;;;;7329805;19;162345;-14
2021/12/17 19:32:43;;;;;;;1.40;1.40;;;;;;;;;;7330265;19;153958;-14
2021/12/17 19:35:18;;;;;;;1.40;1.30;;;;;;;;;;7329916;19;153586;-14
2021/12/17 19:37:50;;;;;;;1.20;1.20;;;;;;;;;;7329523;19;161925;-15
2021/12/17 19:40:21;;;;;;;1.30;1.30;;;;;;;;;;7326885;19;162524;-14
2021/12/17 19:42:55;;;;;;;1.30;1.30;;;;;;;;;;7327274;19;154117;-15
2021/12/17 19:45:27;;;;;;;1.33;1.25;;;;;;;;;;7329774;19;153508;-14
2021/12/17 19:48:12;;;;;;;1.50;1.50;;;;;;;;;;7329314;19;161902;-14
2021/12/17 19:50:44;;;;;;;1.85;1.42;;;;;;;;;;7329362;19;162574;-15
2021/12/17 19:53:15;;;;;;;1.60;1.50;;;;;;;;;;7329612;19;154284;-13
2021/12/17 19:55:49;;;;;;;1.60;1.50;;;;;;;;;;7328170;19;153505;-15
2021/12/17 19:58:23;;;;;;;1.20;1.20;;;;;;;;;;7328742;19;161572;-15
2021/12/17 20:00:54;;;;;;;1.58;1.48;;;;;;;;;;7327534;19;162485;-15
2021/12/17 20:03:27;;;;;;;1.45;1.42;;;;;;;;;;7329078;19;153973;-16
2021/12/17 20:05:58;;;;;;;1.42;1.42;;;;;;;;;;7329178;19;153663;-15
2021/12/17 20:08:29;;;;;;;1.40;1.40;;;;;;;;;;7328826;19;161833;-14
2021/12/17 20:11:05;;;;;;;1.45;1.42;;;;;;;;;;7327294;19;162560;-14
2021/12/17 20:13:41;;;;;;;1.50;1.50;;;;;;;;;;7328813;19;155017;-14
2021/12/17 20:16:14;;;;;;;1.52;1.50;;;;;;;;;;7328744;19;153566;-15
2021/12/17 20:18:46;;;;;;;1.45;1.35;;;;;;;;;;7328833;19;161845;-14
2021/12/17 20:21:18;;;;;;;1.45;1.40;;;;;;;;;;7325006;19;162600;-15
2021/12/17 20:23:49;;;;;;;1.50;1.40;;;;;;;;;;7327640;19;154088;-15
2021/12/17 20:26:21;;;;;;;1.70;1.60;;;;;;;;;;7328563;19;153516;-14
2021/12/17 20:28:55;;;;;;;1.40;1.40;;;;;;;;;;7326887;19;162178;-14
2021/12/17 20:31:27;;;;;;;1.65;1.58;;;;;;;;;;7327908;19;162371;-16
2021/12/17 20:33:59;;;;;;;1.67;1.60;;;;;;;;;;7328405;19;154096;-14
2021/12/17 20:36:30;;;;;;;2.13;1.50;;;;;;;;;;7330354;19;153671;-15
2021/12/17 20:39:04;;;;;;;1.65;1.55;;;;;;;;;;7332498;19;162187;-15
2021/12/17 20:41:42;;;;;;;2.10;1.90;;;;;;;;;;7333554;19;162383;-15
2021/12/17 20:44:18;;;;;;;2.00;1.73;;;;;;;;;;7337583;19;154226;-14
2021/12/17 20:46:55;;;;;;;2.40;2.20;;;;;;;;;;7333893;19;154462;-14
2021/12/17 20:49:28;;;;;;;1.85;1.75;;;;;;;;;;7336723;19;162008;-14
2021/12/17 20:52:00;;;;;;;1.95;1.85;;;;;;;;;;7328223;19;162580;-15
2021/12/17 20:54:33;;;;;;;1.83;1.73;;;;;;;;;;7333040;19;154162;-15
2021/12/17 20:57:04;;;;;;;1.63;1.60;;;;;;;;;;7334091;19;153858;-16
2021/12/17 20:59:38;;;;;;;2.08;1.90;;;;;;;;;;7332297;19;161791;-15
2021/12/17 21:02:09;;;;;;;1.95;1.75;;;;;;;;;;7337555;19;162628;-15
2021/12/17 21:04:41;;;;;;;1.58;1.48;;;;;;;;;;7335380;19;153960;-15
2021/12/17 21:07:12;;;;;;;1.80;1.70;;;;;;;;;;7335148;19;153512;-14
2021/12/17 21:09:44;;;;;;;1.80;1.70;;;;;;;;;;7336633;19;162173;-14
2021/12/17 21:12:16;;;;;;;1.77;1.67;;;;;;;;;;7336620;19;162543;-15
2021/12/17 21:14:50;;;;;;;2.13;1.77;;;;;;;;;;7337882;19;153999;-15
2021/12/17 21:17:21;;;;;;;1.70;1.60;;;;;;;;;;7333998;19;153595;-15
2021/12/17 21:19:52;;;;;;;2.00;1.90;;;;;;;;;;7333426;19;162054;-15
2021/12/17 21:22:24;;;;;;;1.90;1.80;;;;;;;;;;7336997;19;162527;-15
2021/12/17 21:24:55;;;;;;;1.63;1.52;;;;;;;;;;7333740;19;154162;-16
2021/12/17 21:27:28;;;;;;;2.90;2.28;;;;;;;;;;7336216;19;153792;-16
2021/12/17 21:30:03;;;;;;;2.58;2.03;;;;;;;;;;7330009;19;161748;-15
2021/12/17 21:32:35;;;;;;;2.00;1.90;;;;;;;;;;7335802;19;162412;-15
2021/12/17 21:35:15;;;;;;;2.25;1.92;;;;;;;;;;7335703;19;153986;-15
2021/12/17 21:37:48;;;;;;;2.00;1.90;;;;;;;;;;7336605;19;153600;-14
2021/12/17 21:40:22;;;;;;;1.90;1.80;;;;;;;;;;7335209;19;161971;-16
2021/12/17 21:42:54;;;;;;;1.75;1.75;;;;;;;;;;7333583;19;162560;-16
2021/12/17 21:45:29;;;;;;;3.13;2.03;;;;;;;;;;7334689;19;154492;-19
2021/12/17 21:48:05;;;;;;;2.33;1.95;;;;;;;;;;7336136;19;153668;-16
2021/12/17 21:50:38;;;;;;;2.20;2.00;;;;;;;;;;7335691;19;161927;-16
2021/12/17 21:53:13;;;;;;;2.25;1.80;;;;;;;;;;7335572;19;162463;-17
2021/12/17 21:55:44;;;;;;;1.65;1.55;;;;;;;;;;7336537;19;153963;-14
2021/12/17 21:58:18;;;;;;;1.73;1.63;;;;;;;;;;7334753;19;153518;-14
2021/12/17 22:00:56;;;;;;;1.80;1.70;;;;;;;;;;7334029;19;161790;-16
2021/12/17 22:03:34;;;;;;;2.65;1.85;;;;;;;;;;7334338;19;162217;-14
2021/12/17 22:06:07;;;;;;;1.70;1.60;;;;;;;;;;7335192;19;153982;-15
2021/12/17 22:08:43;;;;;;;1.70;1.60;;;;;;;;;;7334153;19;153571;-16
2021/12/17 22:11:18;;;;;;;2.13;1.92;;;;;;;;;;7335343;19;161818;-15
2021/12/17 22:13:49;;;;;;;1.52;1.52;;;;;;;;;;7335555;19;162331;-15
2021/12/17 22:16:24;;;;;;;1.90;1.80;;;;;;;;;;7334324;19;153977;-15
2021/12/17 22:18:59;;;;;;;1.60;1.50;;;;;;;;;;7333456;19;153724;-17
2021/12/17 22:21:34;;;;;;;1.90;1.80;;;;;;;;;;7331744;19;162085;-15
2021/12/17 22:24:06;;;;;;;1.90;1.80;;;;;;;;;;7334954;19;162343;-16
2021/12/17 22:26:40;;;;;;;1.50;1.48;;;;;;;;;;7334923;19;154151;-14
2021/12/17 22:29:14;;;;;;;1.77;1.67;;;;;;;;;;7335928;19;155639;-14
2021/12/17 22:31:51;;;;;;;1.75;1.65;;;;;;;;;;7334002;19;162126;-14
2021/12/17 22:34:22;;;;;;;1.63;1.50;;;;;;;;;;7334735;19;162416;-15
2021/12/17 22:36:54;;;;;;;1.90;1.50;;;;;;;;;;7334438;19;154293;-15
2021/12/17 22:39:25;;;;;;;1.67;1.58;;;;;;;;;;7328983;19;154156;-14
2021/12/17 22:42:04;;;;;;;1.42;1.42;;;;;;;;;;7279519;19;174381;-16
2021/12/17 22:44:36;;;;;;;1.65;1.55;;;;;;;;;;7327480;19;162543;-15
2021/12/17 22:47:10;;;;;;;1.80;1.70;;;;;;;;;;7334337;19;154358;-13
2021/12/17 22:49:41;;;;;;;1.48;1.40;;;;;;;;;;7334324;19;153872;-15
2021/12/17 22:52:13;;;;;;;1.67;1.40;;;;;;;;;;7333839;19;163677;-15
2021/12/17 22:54:44;;;;;;;1.67;1.58;;;;;;;;;;7334377;19;162524;-16
2021/12/17 22:57:21;;;;;;;1.20;1.20;;;;;;;;;;7333108;19;153939;-15
2021/12/17 22:59:52;;;;;;;1.83;1.63;;;;;;;;;;7334575;19;153509;-14
2021/12/17 23:02:27;;;;;;;2.00;1.70;;;;;;;;;;7330162;19;161994;-14
2021/12/17 23:05:02;;;;;;;1.65;1.55;;;;;;;;;;7331855;19;162453;-13
2021/12/17 23:07:56;;;;;;;2.15;1.95;;;;;;;;;;7332598;19;154113;-15
2021/12/17 23:10:31;;;;;;;1.65;1.55;;;;;;;;;;7333845;19;153430;-15
2021/12/17 23:13:02;;;;;;;1.60;1.50;;;;;;;;;;7333274;19;161823;-15